Absecon Heights, New Jersey
Current Conditions -  °F | °C
As of 9:54 AM on Saturday 20 Dec 2014 (Local Time) from KACY Reporting Station
Overcast Overcast  
Wind Chill: 26°   Ceiling: 2700
Heat Index: 33°   Visibility: 10mi
Dew Point: 23°   Wind: 8mph
Humidity: 66%   Direction: 350°N
Pressure: 30.31"   Gusts: NA
Location:  39.4315°N, 74.5003°W
Report Text: KACY 201454Z 35007KT 10SM OVC027 01/M05 A3031 RMK AO2 SLP265 T00061050 51018
Loading
Personal Weather Stations






























Interactive Weather Map New forecast layout! Learn more

10-Day Weather Forecast

Advertisements
Track Severe Weather on mobile